Time;durP1;ratioP1;P1;durP2;ratioP2;P2;SDS_P1;SDS_P2;PMS_P1;PMS_P2;Temp;Humidity;BMP_temperature;BMP_pressure;BME280_temperature;BME280_humidity;BME280_pressure;Samples;Min_cycle;Max_cycle;Signal;HPM_P1;HPM_P2
2023/09/03 00:01:39;;;;;;;20.13;14.23;;;11.90;99.90;;;;;;5011650;28;20394;-66
2023/09/03 00:04:05;;;;;;;20.48;14.25;;;11.90;99.90;;;;;;5012393;28;20043;-67
2023/09/03 00:06:30;;;;;;;25.35;16.05;;;11.90;99.90;;;;;;5011390;28;20119;-66
2023/09/03 00:08:56;;;;;;;23.10;16.33;;;11.90;99.90;;;;;;5012881;28;20083;-66
2023/09/03 00:11:21;;;;;;;25.02;16.73;;;11.90;99.90;;;;;;5008860;28;20147;-66
2023/09/03 00:13:47;;;;;;;23.13;16.65;;;11.90;99.90;;;;;;5006612;28;20034;-66
2023/09/03 00:16:12;;;;;;;20.00;14.23;;;11.90;99.90;;;;;;5013434;28;20033;-68
2023/09/03 00:18:38;;;;;;;24.60;17.23;;;12.00;99.90;;;;;;5016461;28;20167;-66
2023/09/03 00:21:05;;;;;;;21.45;15.50;;;12.00;99.90;;;;;;5012145;28;20033;-65
2023/09/03 00:23:31;;;;;;;24.52;16.40;;;12.10;99.90;;;;;;5020456;28;20504;-66
2023/09/03 00:25:58;;;;;;;24.80;16.17;;;12.10;99.90;;;;;;5017746;28;20022;-66
2023/09/03 00:28:24;;;;;;;24.65;16.23;;;12.20;99.90;;;;;;5015134;28;20029;-66
2023/09/03 00:31:03;;;;;;;21.50;16.70;;;12.30;99.90;;;;;;5015296;28;20049;-66
2023/09/03 00:33:29;;;;;;;22.90;17.40;;;12.30;99.90;;;;;;5019749;28;20025;-66
2023/09/03 00:35:55;;;;;;;24.08;15.27;;;12.30;99.90;;;;;;5019520;28;20037;-67
2023/09/03 00:38:20;;;;;;;25.13;14.80;;;12.40;99.90;;;;;;5017801;28;20033;-66
2023/09/03 00:40:46;;;;;;;18.52;14.05;;;12.40;99.90;;;;;;5017348;28;20128;-66
2023/09/03 00:43:11;;;;;;;21.10;13.80;;;12.40;99.90;;;;;;5020249;28;20029;-66
2023/09/03 00:45:42;;;;;;;20.73;14.20;;;12.50;99.90;;;;;;5015698;28;20485;-66
2023/09/03 00:48:09;;;;;;;22.80;15.55;;;12.50;99.90;;;;;;5017405;28;20516;-67
2023/09/03 00:50:37;;;;;;;22.33;14.65;;;12.50;99.90;;;;;;5016195;28;20032;-66
2023/09/03 00:53:03;;;;;;;20.55;15.43;;;12.50;99.90;;;;;;5018799;28;20029;-67
2023/09/03 00:55:29;;;;;;;19.20;14.80;;;12.60;99.90;;;;;;5017334;28;20037;-66
2023/09/03 00:57:55;;;;;;;19.92;14.30;;;12.60;99.90;;;;;;5016159;28;20022;-66
2023/09/03 01:00:21;;;;;;;22.90;16.42;;;12.70;99.90;;;;;;5014942;28;20025;-66
2023/09/03 01:02:48;;;;;;;18.45;13.88;;;12.70;99.90;;;;;;5017141;28;20029;-66
2023/09/03 01:05:14;;;;;;;23.75;16.88;;;12.80;99.90;;;;;;5011800;28;20022;-66
2023/09/03 01:07:40;;;;;;;21.95;15.43;;;12.70;99.90;;;;;;5015757;28;20032;-66
2023/09/03 01:10:06;;;;;;;22.02;15.73;;;12.80;99.90;;;;;;5017942;28;20037;-67
2023/09/03 01:12:42;;;;;;;21.77;15.40;;;12.90;99.90;;;;;;5014705;28;20030;-66
2023/09/03 01:15:14;;;;;;;17.25;13.18;;;12.90;99.90;;;;;;5017262;28;20040;-57
2023/09/03 01:17:49;;;;;;;20.73;14.55;;;12.90;99.90;;;;;;5014763;28;20014;-57
2023/09/03 01:20:25;;;;;;;19.53;14.70;;;12.90;99.90;;;;;;5016901;28;20046;-58
2023/09/03 01:23:13;;;;;;;19.67;14.07;;;12.90;99.90;;;;;;5008974;28;20509;-56
2023/09/03 01:26:22;;;;;;;15.15;12.35;;;13.00;99.90;;;;;;5015821;28;20018;-57
2023/09/03 01:28:49;;;;;;;18.55;13.32;;;13.00;99.90;;;;;;5015332;28;20033;-58
2023/09/03 01:31:17;;;;;;;25.15;15.30;;;13.00;99.90;;;;;;5016803;28;20137;-57
2023/09/03 01:33:44;;;;;;;20.02;14.60;;;13.00;99.90;;;;;;5020101;28;20083;-57
2023/09/03 01:36:13;;;;;;;19.77;15.20;;;13.00;99.90;;;;;;5017866;28;20037;-57
2023/09/03 01:38:40;;;;;;;18.38;13.63;;;13.10;99.90;;;;;;5021854;28;20030;-57
2023/09/03 01:41:07;;;;;;;17.88;12.27;;;13.10;99.90;;;;;;5012214;28;20100;-57
2023/09/03 01:43:33;;;;;;;17.10;13.00;;;13.10;99.90;;;;;;5016611;28;20026;-58
2023/09/03 01:46:07;;;;;;;17.88;13.07;;;13.10;99.90;;;;;;5014454;28;20034;-58
2023/09/03 01:48:51;;;;;;;16.58;13.20;;;13.10;99.90;;;;;;5017149;28;20045;-58
2023/09/03 01:51:28;;;;;;;18.98;13.75;;;13.10;99.90;;;;;;5014944;28;20047;-56
2023/09/03 01:54:18;;;;;;;16.15;12.43;;;13.10;99.90;;;;;;5013400;28;20026;-53
2023/09/03 01:56:58;;;;;;;22.55;14.10;;;13.10;99.90;;;;;;5018040;28;20536;-58
2023/09/03 01:59:35;;;;;;;20.80;15.15;;;13.10;99.90;;;;;;5018141;28;20184;-58
2023/09/03 02:02:01;;;;;;;20.38;15.20;;;13.10;99.90;;;;;;5013990;28;20033;-59
2023/09/03 02:04:27;;;;;;;16.65;12.38;;;13.10;99.90;;;;;;5020410;28;20022;-59
2023/09/03 02:06:52;;;;;;;16.98;13.20;;;13.10;99.90;;;;;;5018077;28;20092;-57
2023/09/03 02:09:18;;;;;;;17.33;14.02;;;13.20;99.90;;;;;;5016311;28;20092;-58
2023/09/03 02:11:44;;;;;;;20.60;13.85;;;13.20;99.90;;;;;;5013816;28;20379;-57
2023/09/03 02:14:10;;;;;;;20.08;14.45;;;13.20;99.90;;;;;;5013604;28;20018;-58
2023/09/03 02:16:35;;;;;;;18.35;14.75;;;13.20;99.90;;;;;;5022677;28;20031;-59
2023/09/03 02:19:01;;;;;;;21.13;15.45;;;13.20;99.90;;;;;;5015587;28;20033;-60
2023/09/03 02:21:26;;;;;;;18.23;13.80;;;13.20;99.90;;;;;;5013834;28;20025;-58
2023/09/03 02:23:51;;;;;;;19.88;14.63;;;13.10;99.90;;;;;;5014008;28;20788;-58
2023/09/03 02:26:18;;;;;;;20.40;15.40;;;13.10;99.90;;;;;;5016357;28;20037;-58
2023/09/03 02:28:43;;;;;;;20.48;15.38;;;13.10;99.90;;;;;;5012916;28;20042;-57
2023/09/03 02:31:09;;;;;;;23.50;16.35;;;13.00;99.90;;;;;;5011392;28;20751;-58
2023/09/03 02:33:34;;;;;;;21.42;16.45;;;12.90;99.90;;;;;;5014661;28;20026;-58
2023/09/03 02:36:00;;;;;;;22.65;16.33;;;12.90;99.90;;;;;;5017295;28;20030;-58
2023/09/03 02:38:25;;;;;;;24.02;16.42;;;12.90;99.90;;;;;;5012575;28;20034;-57
2023/09/03 02:40:50;;;;;;;28.08;16.67;;;12.80;99.90;;;;;;5010767;28;20378;-58
2023/09/03 02:43:16;;;;;;;22.58;16.02;;;12.80;99.90;;;;;;5019257;28;20037;-58
2023/09/03 02:45:41;;;;;;;20.85;16.42;;;12.80;99.90;;;;;;5011230;28;20428;-58
2023/09/03 02:48:11;;;;;;;25.08;18.33;;;12.70;99.90;;;;;;5017305;28;20591;-57
2023/09/03 02:50:37;;;;;;;27.05;16.98;;;12.70;99.90;;;;;;5014781;28;20038;-57
2023/09/03 02:53:06;;;;;;;22.90;16.35;;;12.60;99.90;;;;;;5022241;28;20067;-56
2023/09/03 02:55:32;;;;;;;24.08;17.08;;;12.60;99.90;;;;;;5006738;28;20026;-58
2023/09/03 02:57:58;;;;;;;24.90;18.65;;;12.60;99.90;;;;;;5016742;28;20157;-57
2023/09/03 03:00:24;;;;;;;24.20;16.40;;;12.60;99.90;;;;;;5012437;28;20108;-55
2023/09/03 03:02:50;;;;;;;25.70;18.20;;;12.60;99.90;;;;;;5012321;28;20448;-58
2023/09/03 03:05:16;;;;;;;27.58;17.90;;;12.60;99.90;;;;;;5011115;28;20040;-58
2023/09/03 03:07:42;;;;;;;26.98;18.75;;;12.50;99.90;;;;;;5009970;28;20430;-56
2023/09/03 03:10:09;;;;;;;29.23;18.65;;;12.50;99.90;;;;;;5018162;28;20040;-57
2023/09/03 03:12:34;;;;;;;26.67;16.83;;;12.50;99.90;;;;;;5018575;28;20033;-58
2023/09/03 03:15:00;;;;;;;28.65;17.13;;;12.40;99.90;;;;;;5012395;28;20424;-58
2023/09/03 03:17:25;;;;;;;29.08;17.92;;;12.40;99.90;;;;;;5019373;28;20053;-58
2023/09/03 03:19:51;;;;;;;25.30;17.10;;;12.40;99.90;;;;;;5014632;28;20032;-58
2023/09/03 03:22:16;;;;;;;28.20;18.27;;;12.40;99.90;;;;;;5012943;28;20053;-58
2023/09/03 03:24:42;;;;;;;27.95;17.63;;;12.40;99.90;;;;;;5018428;28;20389;-58
2023/09/03 03:27:08;;;;;;;23.83;17.33;;;12.40;99.90;;;;;;5018035;28;20044;-58
2023/09/03 03:29:34;;;;;;;24.65;16.42;;;12.30;99.90;;;;;;5019118;28;20025;-57
2023/09/03 03:31:59;;;;;;;27.88;17.63;;;12.30;99.90;;;;;;5018735;28;20072;-58
2023/09/03 03:34:25;;;;;;;25.75;17.38;;;12.40;99.90;;;;;;5014330;28;20053;-57
2023/09/03 03:36:51;;;;;;;24.55;16.88;;;12.40;99.90;;;;;;5019039;28;20045;-58
2023/09/03 03:39:17;;;;;;;25.35;17.17;;;12.40;99.90;;;;;;5020486;28;20067;-57
2023/09/03 03:41:42;;;;;;;24.40;17.17;;;12.30;99.90;;;;;;5014178;28;20033;-57
2023/09/03 03:44:08;;;;;;;22.65;16.65;;;12.40;99.90;;;;;;5010137;28;20100;-57
2023/09/03 03:46:33;;;;;;;23.38;16.30;;;12.30;99.90;;;;;;5012723;28;20060;-58
2023/09/03 03:48:59;;;;;;;22.80;15.93;;;12.40;99.90;;;;;;5010912;28;20018;-58
2023/09/03 03:51:25;;;;;;;21.95;15.90;;;12.40;99.90;;;;;;5014900;28;20041;-58
2023/09/03 03:53:51;;;;;;;20.95;14.68;;;12.30;99.90;;;;;;5018358;28;20434;-57
2023/09/03 03:56:16;;;;;;;21.05;14.30;;;12.40;99.90;;;;;;5018726;28;20049;-58
2023/09/03 03:58:43;;;;;;;17.35;13.40;;;12.40;99.90;;;;;;5013015;28;20478;-57
2023/09/03 04:01:17;;;;;;;19.20;14.50;;;12.40;99.90;;;;;;5012162;28;20018;-57
2023/09/03 04:03:42;;;;;;;21.48;15.10;;;12.30;99.90;;;;;;5013459;28;20034;-58
2023/09/03 04:06:08;;;;;;;24.23;15.63;;;12.40;99.90;;;;;;5015528;28;20033;-58
2023/09/03 04:08:36;;;;;;;15.68;12.73;;;12.40;99.90;;;;;;5018817;28;20097;-58
2023/09/03 04:11:04;;;;;;;21.40;15.75;;;12.30;99.90;;;;;;5011786;28;20613;-58
2023/09/03 04:13:30;;;;;;;19.20;14.73;;;12.30;99.90;;;;;;5006495;28;20090;-58
2023/09/03 04:15:57;;;;;;;21.38;14.93;;;12.30;99.90;;;;;;5017942;28;20140;-57
2023/09/03 04:18:23;;;;;;;23.15;15.50;;;12.30;99.90;;;;;;5014115;28;20049;-57
2023/09/03 04:20:53;;;;;;;27.05;15.85;;;12.30;99.90;;;;;;5013142;28;20485;-58
2023/09/03 04:23:19;;;;;;;21.40;14.52;;;12.20;99.90;;;;;;5012999;28;20096;-56
2023/09/03 04:25:45;;;;;;;21.08;16.23;;;12.30;99.90;;;;;;5013538;28;20026;-57
2023/09/03 04:28:11;;;;;;;20.98;15.27;;;12.30;99.90;;;;;;5011070;28;20041;-57
2023/09/03 04:30:38;;;;;;;23.05;15.93;;;12.20;99.90;;;;;;5013204;28;20462;-57
2023/09/03 04:33:06;;;;;;;19.98;13.77;;;12.20;99.90;;;;;;5018005;28;20034;-58
2023/09/03 04:35:31;;;;;;;19.65;15.35;;;12.20;99.90;;;;;;5021646;28;20056;-58
2023/09/03 04:37:57;;;;;;;17.92;13.45;;;12.20;99.90;;;;;;5014597;28;20470;-56
2023/09/03 04:40:24;;;;;;;16.95;13.88;;;12.30;99.90;;;;;;5015036;28;20442;-58
2023/09/03 04:42:49;;;;;;;20.52;14.35;;;12.30;99.90;;;;;;5011969;28;20025;-58
2023/09/03 04:45:15;;;;;;;18.60;13.77;;;12.40;99.90;;;;;;5018509;28;20027;-58
2023/09/03 04:47:41;;;;;;;17.98;14.20;;;12.40;99.90;;;;;;5011001;28;20089;-57
2023/09/03 04:50:07;;;;;;;16.75;12.95;;;12.50;99.90;;;;;;5017574;28;20025;-55
2023/09/03 04:52:34;;;;;;;15.60;11.40;;;12.60;99.90;;;;;;5012175;28;20037;-58
2023/09/03 04:54:59;;;;;;;15.73;12.43;;;12.60;99.90;;;;;;5010259;28;20120;-58
2023/09/03 04:57:25;;;;;;;14.77;10.80;;;12.70;99.90;;;;;;5016463;28;20104;-58
2023/09/03 04:59:51;;;;;;;16.58;11.80;;;12.80;99.90;;;;;;5013906;28;20025;-57
2023/09/03 05:02:16;;;;;;;15.98;11.52;;;12.90;99.90;;;;;;5017634;28;20033;-57
2023/09/03 05:04:42;;;;;;;15.55;11.77;;;13.00;99.90;;;;;;5017228;28;20030;-58
2023/09/03 05:07:07;;;;;;;16.15;11.05;;;13.00;99.90;;;;;;5013058;28;20029;-58
2023/09/03 05:09:33;;;;;;;13.10;11.00;;;13.10;99.90;;;;;;5018417;28;20041;-59
2023/09/03 05:11:58;;;;;;;12.52;10.70;;;13.10;99.90;;;;;;5014752;28;20030;-57
2023/09/03 05:14:24;;;;;;;13.07;9.68;;;13.20;99.90;;;;;;5019508;28;20037;-63
2023/09/03 05:16:50;;;;;;;12.02;8.30;;;13.30;99.90;;;;;;5015140;28;20037;-62
2023/09/03 05:19:15;;;;;;;10.13;7.82;;;13.40;99.90;;;;;;5018895;28;20482;-63
2023/09/03 05:21:41;;;;;;;11.43;8.85;;;13.40;99.90;;;;;;5018649;28;20045;-63
2023/09/03 05:24:07;;;;;;;9.32;7.75;;;13.50;99.90;;;;;;5014408;28;20639;-58
2023/09/03 05:26:33;;;;;;;10.10;7.65;;;13.60;99.90;;;;;;5019202;28;20098;-58
2023/09/03 05:28:59;;;;;;;9.13;7.13;;;13.80;99.90;;;;;;5019025;28;20517;-58
2023/09/03 05:31:24;;;;;;;11.38;7.80;;;13.90;99.90;;;;;;5014030;28;20038;-58
2023/09/03 05:33:50;;;;;;;6.82;6.10;;;14.00;99.90;;;;;;5018632;28;20040;-58
2023/09/03 05:36:16;;;;;;;9.23;6.85;;;14.20;99.90;;;;;;5017274;28;20021;-59
2023/09/03 05:38:42;;;;;;;6.25;5.00;;;14.30;99.90;;;;;;5013522;28;20477;-57
2023/09/03 05:41:11;;;;;;;6.43;5.40;;;14.50;99.90;;;;;;5021982;28;20033;-58
2023/09/03 05:43:38;;;;;;;6.32;5.00;;;14.60;99.90;;;;;;5018987;28;20525;-56
2023/09/03 05:46:04;;;;;;;9.95;5.05;;;14.70;99.90;;;;;;5014808;28;20045;-58
2023/09/03 05:48:30;;;;;;;7.10;5.45;;;14.70;99.90;;;;;;5017500;28;20088;-59
2023/09/03 05:50:57;;;;;;;7.97;5.95;;;14.80;99.90;;;;;;5018351;28;20056;-55
2023/09/03 05:53:23;;;;;;;8.25;5.47;;;14.90;99.90;;;;;;5015134;28;20029;-57
2023/09/03 05:55:49;;;;;;;9.23;5.53;;;15.00;99.90;;;;;;5015278;28;20034;-58
2023/09/03 05:58:14;;;;;;;7.43;5.35;;;15.20;99.90;;;;;;5020687;28;20045;-58
2023/09/03 06:00:41;;;;;;;7.20;4.97;;;15.50;99.90;;;;;;5018536;28;20017;-58
2023/09/03 06:03:06;;;;;;;8.05;5.10;;;15.70;99.90;;;;;;5019201;28;20108;-58
2023/09/03 06:05:32;;;;;;;7.10;5.18;;;15.90;99.90;;;;;;5013600;28;20112;-58
2023/09/03 06:08:00;;;;;;;7.57;4.72;;;16.20;99.90;;;;;;5011252;28;20088;-58
2023/09/03 06:10:25;;;;;;;5.07;4.55;;;16.30;99.90;;;;;;5010587;28;20046;-58
2023/09/03 06:12:51;;;;;;;4.55;4.15;;;16.70;99.90;;;;;;5016672;28;20045;-58
2023/09/03 06:15:17;;;;;;;4.70;4.20;;;17.10;99.90;;;;;;5019927;28;20478;-58
2023/09/03 06:17:43;;;;;;;4.63;3.63;;;17.50;99.90;;;;;;5013858;28;20108;-58
2023/09/03 06:20:10;;;;;;;5.85;3.95;;;17.70;99.90;;;;;;5017127;28;20516;-58
2023/09/03 06:22:36;;;;;;;6.60;4.18;;;17.90;99.90;;;;;;5017418;28;20401;-58
2023/09/03 06:25:01;;;;;;;3.90;3.50;;;18.10;99.90;;;;;;5021340;28;20533;-58
2023/09/03 06:27:27;;;;;;;4.10;3.13;;;18.50;99.90;;;;;;5018549;28;20021;-56
2023/09/03 06:29:52;;;;;;;6.30;3.30;;;19.10;97.60;;;;;;5010824;28;20069;-58
2023/09/03 06:32:18;;;;;;;5.05;3.10;;;19.90;97.00;;;;;;5022360;28;20410;-57
2023/09/03 06:34:44;;;;;;;3.25;2.58;;;20.60;94.90;;;;;;5016877;28;20057;-57
2023/09/03 06:37:10;;;;;;;5.57;2.85;;;20.90;92.30;;;;;;5011290;28;20029;-58
2023/09/03 06:39:35;;;;;;;2.55;2.03;;;21.80;91.50;;;;;;5013751;28;20600;-58
2023/09/03 06:42:01;;;;;;;3.70;2.35;;;23.30;88.20;;;;;;5011015;28;20112;-58
2023/09/03 06:44:27;;;;;;;3.10;2.30;;;24.30;83.50;;;;;;5019272;28;20073;-56
2023/09/03 06:46:53;;;;;;;3.88;1.80;;;24.30;80.50;;;;;;5017119;28;20053;-55
2023/09/03 06:49:18;;;;;;;5.32;1.90;;;24.00;80.50;;;;;;5014925;28;20022;-57
2023/09/03 06:51:44;;;;;;;3.08;2.05;;;23.30;79.20;;;;;;5015111;28;20029;-56
2023/09/03 06:54:09;;;;;;;1.75;1.48;;;22.70;81.90;;;;;;5019550;28;20044;-57
2023/09/03 06:56:35;;;;;;;8.02;2.20;;;22.20;76.20;;;;;;5017459;28;20025;-59
2023/09/03 06:59:00;;;;;;;2.28;1.67;;;21.90;82.50;;;;;;5011410;28;20544;-58
2023/09/03 07:01:26;;;;;;;3.47;2.33;;;21.90;82.20;;;;;;5010376;28;20053;-56
2023/09/03 07:03:51;;;;;;;5.13;2.10;;;21.80;81.00;;;;;;5015470;28;20891;-56
2023/09/03 07:06:17;;;;;;;2.53;1.63;;;22.10;80.70;;;;;;5016374;28;20029;-56
2023/09/03 07:08:42;;;;;;;2.63;1.40;;;22.30;76.50;;;;;;5009461;28;20052;-56
2023/09/03 07:11:08;;;;;;;2.33;1.52;;;22.30;78.00;;;;;;5010775;28;20029;-59
2023/09/03 07:13:33;;;;;;;1.77;1.40;;;22.10;78.00;;;;;;5023818;28;20513;-56
2023/09/03 07:16:03;;;;;;;3.30;1.58;;;22.10;76.80;;;;;;5018948;28;20109;-57
2023/09/03 07:18:29;;;;;;;2.80;1.42;;;21.90;77.90;;;;;;5020759;28;20520;-56
2023/09/03 07:21:05;;;;;;;2.50;1.48;;;21.70;76.50;;;;;;5016731;28;20025;-56
2023/09/03 07:23:31;;;;;;;3.65;1.38;;;21.60;78.30;;;;;;5020998;28;20177;-57
2023/09/03 07:26:15;;;;;;;3.15;1.20;;;21.80;79.00;;;;;;5022773;28;20493;-57
2023/09/03 07:28:41;;;;;;;2.35;1.20;;;21.80;74.30;;;;;;5018164;28;20032;-57
2023/09/03 07:31:06;;;;;;;2.08;1.42;;;21.70;78.10;;;;;;5020810;28;20057;-57
2023/09/03 07:33:32;;;;;;;1.58;1.45;;;21.70;77.90;;;;;;5020565;28;20497;-56
2023/09/03 07:35:58;;;;;;;2.13;1.30;;;21.80;77.90;;;;;;5020298;28;20025;-57
2023/09/03 07:38:25;;;;;;;4.30;1.60;;;21.80;77.60;;;;;;5020258;28;20022;-56
2023/09/03 07:40:51;;;;;;;3.15;1.70;;;21.60;76.00;;;;;;5020449;28;20018;-57
2023/09/03 07:43:16;;;;;;;3.78;1.77;;;21.30;76.10;;;;;;5020130;28;20032;-56
2023/09/03 07:45:42;;;;;;;3.72;1.50;;;21.30;76.90;;;;;;5018789;28;20405;-58
2023/09/03 07:48:07;;;;;;;6.00;1.92;;;21.30;76.40;;;;;;5019328;28;20038;-57
2023/09/03 07:50:33;;;;;;;1.70;1.25;;;21.20;75.20;;;;;;5022815;28;20122;-56
2023/09/03 07:52:59;;;;;;;3.95;1.58;;;21.10;76.30;;;;;;5019962;28;20030;-58
2023/09/03 07:55:24;;;;;;;2.40;1.90;;;21.00;76.00;;;;;;5020162;28;20022;-57
2023/09/03 07:57:50;;;;;;;1.35;1.25;;;21.10;77.10;;;;;;5019887;28;20257;-57
2023/09/03 08:00:15;;;;;;;1.88;1.13;;;21.40;77.10;;;;;;5021846;28;20112;-57
2023/09/03 08:02:41;;;;;;;3.55;1.60;;;21.70;76.40;;;;;;5019863;28;20018;-57
2023/09/03 08:05:10;;;;;;;5.75;1.48;;;21.90;75.30;;;;;;5020246;28;20357;-57
2023/09/03 08:07:36;;;;;;;3.83;1.23;;;22.00;75.00;;;;;;5028708;28;20107;-56
2023/09/03 08:10:02;;;;;;;2.67;1.58;;;22.20;74.70;;;;;;5021179;28;20101;-57
2023/09/03 08:12:27;;;;;;;1.92;1.20;;;22.20;73.80;;;;;;5022701;28;20037;-56
2023/09/03 08:14:53;;;;;;;3.08;1.23;;;22.10;70.10;;;;;;5011605;28;20498;-57
2023/09/03 08:17:18;;;;;;;2.03;1.30;;;22.00;71.60;;;;;;5017049;28;20039;-57
2023/09/03 08:19:44;;;;;;;3.75;1.67;;;21.90;71.60;;;;;;5011629;28;20433;-57
2023/09/03 08:22:09;;;;;;;2.50;1.27;;;21.80;71.50;;;;;;5013946;28;20042;-57
2023/09/03 08:24:35;;;;;;;1.67;1.40;;;21.60;71.00;;;;;;5015047;28;20026;-57
2023/09/03 08:27:00;;;;;;;3.47;1.40;;;21.60;70.50;;;;;;5015281;28;20021;-57
2023/09/03 08:29:26;;;;;;;2.75;1.42;;;21.50;70.30;;;;;;5015927;28;20493;-57
2023/09/03 08:31:52;;;;;;;2.55;1.58;;;21.60;70.40;;;;;;5014166;28;20102;-57
2023/09/03 08:34:17;;;;;;;3.75;1.20;;;21.70;70.70;;;;;;5011820;28;20026;-57
2023/09/03 08:36:43;;;;;;;2.60;1.10;;;21.80;69.80;;;;;;5023059;28;20025;-58
2023/09/03 08:39:09;;;;;;;3.20;1.80;;;22.00;69.70;;;;;;5012813;28;20061;-58
2023/09/03 08:41:38;;;;;;;2.00;1.40;;;22.10;69.00;;;;;;5021389;28;20030;-55
2023/09/03 08:44:08;;;;;;;1.80;1.05;;;22.20;64.60;;;;;;5014948;28;20033;-57
2023/09/03 08:46:36;;;;;;;2.00;1.08;;;22.10;67.20;;;;;;5009691;28;20021;-58
2023/09/03 08:49:02;;;;;;;2.22;1.40;;;22.20;67.60;;;;;;5019082;28;20025;-57
2023/09/03 08:51:29;;;;;;;4.30;1.45;;;22.40;64.70;;;;;;5013998;28;20490;-57
2023/09/03 08:53:56;;;;;;;1.25;1.10;;;22.50;65.70;;;;;;5020718;28;20476;-56
2023/09/03 08:56:23;;;;;;;1.15;1.02;;;22.70;65.50;;;;;;5016453;28;20025;-57
2023/09/03 08:58:48;;;;;;;2.38;1.38;;;22.90;65.10;;;;;;5027917;28;20075;-55
2023/09/03 09:01:15;;;;;;;3.33;1.25;;;22.90;62.10;;;;;;5016822;28;20030;-57
2023/09/03 09:03:42;;;;;;;1.98;1.00;;;23.00;63.60;;;;;;5018930;28;20021;-57
2023/09/03 09:06:08;;;;;;;2.33;1.20;;;23.10;63.20;;;;;;5026060;28;20036;-57
2023/09/03 09:08:35;;;;;;;3.10;1.10;;;23.30;62.60;;;;;;5015542;28;20392;-57
2023/09/03 09:11:07;;;;;;;2.47;1.20;;;23.40;61.30;;;;;;5023098;28;20037;-57
2023/09/03 09:13:39;;;;;;;1.85;0.73;;;23.70;60.40;;;;;;5015573;28;20026;-58
2023/09/03 09:16:05;;;;;;;1.95;0.98;;;23.80;57.20;;;;;;5018203;28;20026;-57
2023/09/03 09:18:30;;;;;;;1.45;0.93;;;23.70;56.10;;;;;;5020758;28;20421;-57
2023/09/03 09:20:59;;;;;;;1.33;1.20;;;23.70;58.90;;;;;;5018722;28;20033;-57
2023/09/03 09:23:26;;;;;;;1.02;0.85;;;23.90;58.30;;;;;;5018001;28;20501;-57
2023/09/03 09:25:55;;;;;;;3.35;0.75;;;24.20;59.00;;;;;;5019185;28;20037;-57
2023/09/03 09:28:21;;;;;;;1.48;1.00;;;24.40;58.00;;;;;;5016510;28;20018;-57
2023/09/03 09:30:55;;;;;;;2.88;0.90;;;24.60;58.00;;;;;;5007969;28;20112;-57
2023/09/03 09:33:21;;;;;;;1.38;0.95;;;24.90;55.40;;;;;;5014267;28;20025;-58
2023/09/03 09:35:46;;;;;;;1.52;0.95;;;25.10;57.10;;;;;;5016471;28;20511;-56
2023/09/03 09:38:12;;;;;;;2.00;1.20;;;25.10;56.00;;;;;;5013453;28;20087;-55
2023/09/03 09:43:59;;;;;;;1.45;1.00;;;25.20;50.30;;;;;;5017976;28;20048;-57
2023/09/03 09:46:27;;;;;;;1.88;0.93;;;25.40;54.40;;;;;;5022965;28;20022;-57
2023/09/03 09:49:00;;;;;;;1.42;0.88;;;25.30;49.70;;;;;;5017321;28;20060;-57
2023/09/03 09:51:27;;;;;;;4.72;1.20;;;25.10;47.30;;;;;;5018395;28;20094;-57
2023/09/03 09:54:00;;;;;;;1.20;0.70;;;25.10;51.40;;;;;;5025227;28;20140;-55
2023/09/03 09:56:28;;;;;;;0.77;0.77;;;25.20;50.70;;;;;;5018584;28;20033;-57
2023/09/03 09:58:54;;;;;;;3.70;1.13;;;25.00;48.70;;;;;;5022387;28;20391;-57
2023/09/03 10:01:20;;;;;;;1.48;1.10;;;25.00;48.70;;;;;;5019780;28;20329;-57
2023/09/03 10:03:49;;;;;;;1.55;1.00;;;24.90;48.70;;;;;;5020208;28;20017;-55
2023/09/03 10:06:16;;;;;;;1.83;0.90;;;24.80;47.20;;;;;;5013658;28;20405;-57
2023/09/03 10:08:44;;;;;;;2.20;1.10;;;24.90;49.00;;;;;;5016980;28;20044;-57
2023/09/03 10:11:10;;;;;;;5.57;1.00;;;25.00;48.50;;;;;;5026603;28;20044;-54
2023/09/03 10:13:38;;;;;;;1.95;1.20;;;25.00;46.30;;;;;;5015576;28;20033;-57
2023/09/03 10:16:06;;;;;;;1.35;1.02;;;25.00;46.80;;;;;;5016125;28;20033;-57
2023/09/03 10:18:38;;;;;;;1.95;1.20;;;25.00;46.80;;;;;;5024633;28;20022;-55
2023/09/03 10:21:09;;;;;;;1.98;1.00;;;25.00;45.80;;;;;;5022078;28;20032;-57
2023/09/03 10:23:42;;;;;;;1.58;1.10;;;25.00;46.10;;;;;;5021685;28;20037;-57
2023/09/03 10:26:09;;;;;;;1.92;1.10;;;25.00;45.80;;;;;;5012823;28;20033;-55
2023/09/03 10:28:38;;;;;;;1.38;0.80;;;25.10;46.80;;;;;;5022284;28;20090;-57
2023/09/03 10:31:05;;;;;;;1.55;1.10;;;25.00;45.80;;;;;;5020664;28;20539;-56
2023/09/03 10:33:32;;;;;;;2.17;0.98;;;25.10;46.00;;;;;;5019290;28;20502;-57
2023/09/03 10:36:18;;;;;;;1.73;0.93;;;25.00;46.20;;;;;;5014073;28;20068;-57
2023/09/03 10:38:44;;;;;;;2.58;0.93;;;24.80;44.70;;;;;;5021880;28;20048;-57
2023/09/03 10:41:24;;;;;;;2.72;1.02;;;24.70;45.90;;;;;;5017757;28;20029;-57
2023/09/03 10:43:52;;;;;;;0.77;0.77;;;24.60;45.10;;;;;;5021355;28;20025;-57
2023/09/03 10:46:18;;;;;;;0.70;0.70;;;24.50;46.00;;;;;;5024569;28;20385;-56
2023/09/03 10:48:51;;;;;;;1.70;0.82;;;24.40;46.00;;;;;;5022104;28;20059;-57
2023/09/03 10:51:49;;;;;;;1.13;1.00;;;24.40;45.50;;;;;;5010044;28;20045;-53
2023/09/03 10:54:16;;;;;;;2.05;0.90;;;24.50;45.00;;;;;;5019347;28;20422;-55
2023/09/03 10:57:09;;;;;;;1.63;1.00;;;24.60;45.60;;;;;;5022721;28;20473;-57
2023/09/03 10:59:57;;;;;;;2.03;1.35;;;24.60;43.70;;;;;;5021674;28;20027;-57
2023/09/03 11:02:25;;;;;;;2.60;0.98;;;24.70;43.10;;;;;;5021105;28;20033;-57
2023/09/03 11:05:20;;;;;;;2.65;1.10;;;24.90;44.00;;;;;;5016825;28;20017;-57
2023/09/03 11:07:46;;;;;;;1.75;1.17;;;24.90;41.00;;;;;;5015700;28;20404;-56
2023/09/03 11:10:25;;;;;;;1.63;0.85;;;25.00;43.60;;;;;;5022975;28;20443;-57
2023/09/03 11:12:51;;;;;;;1.90;1.00;;;25.10;42.40;;;;;;5013311;28;20142;-57
2023/09/03 11:15:18;;;;;;;1.17;1.08;;;25.10;42.00;;;;;;5016075;28;20040;-61
2023/09/03 11:17:50;;;;;;;1.77;1.15;;;25.00;42.80;;;;;;5016370;28;20026;-62
2023/09/03 11:20:28;;;;;;;1.42;1.00;;;25.10;42.70;;;;;;5020269;28;20048;-62
2023/09/03 11:22:55;;;;;;;1.63;0.80;;;25.20;42.40;;;;;;5015382;28;20128;-63
2023/09/03 11:25:37;;;;;;;1.20;0.90;;;25.40;42.90;;;;;;5011744;28;20116;-63
2023/09/03 11:28:04;;;;;;;1.17;0.80;;;25.40;39.50;;;;;;5022754;28;20545;-63
2023/09/03 11:30:30;;;;;;;1.08;0.73;;;25.50;41.20;;;;;;5012151;28;20034;-63
2023/09/03 11:32:56;;;;;;;2.03;1.00;;;25.50;40.50;;;;;;5021169;28;20048;-63
2023/09/03 11:35:22;;;;;;;5.57;1.38;;;25.40;40.80;;;;;;5017452;28;20486;-63
2023/09/03 11:37:50;;;;;;;1.08;0.88;;;25.40;40.10;;;;;;5017944;28;20030;-62
2023/09/03 11:40:16;;;;;;;3.03;1.17;;;25.30;38.90;;;;;;5017712;28;20048;-62
2023/09/03 11:42:43;;;;;;;1.17;0.75;;;25.20;38.20;;;;;;5017702;28;20057;-61
2023/09/03 11:45:11;;;;;;;2.92;0.82;;;25.10;38.30;;;;;;5017758;28;20065;-62
2023/09/03 11:47:45;;;;;;;1.25;1.08;;;25.00;37.90;;;;;;5027541;28;20595;-63
2023/09/03 11:50:15;;;;;;;1.70;1.10;;;24.90;37.30;;;;;;5019937;28;20044;-62
2023/09/03 11:52:54;;;;;;;1.20;0.88;;;24.90;38.30;;;;;;5015579;28;20025;-62
2023/09/03 11:55:21;;;;;;;1.42;1.10;;;24.90;35.80;;;;;;5019049;28;20029;-61
2023/09/03 11:57:48;;;;;;;1.38;0.90;;;24.80;37.10;;;;;;5017600;28;20030;-62
2023/09/03 12:00:15;;;;;;;1.40;1.00;;;24.80;37.00;;;;;;5016696;28;20033;-62
2023/09/03 12:02:42;;;;;;;1.85;0.85;;;24.80;36.50;;;;;;5009910;28;20254;-63
2023/09/03 12:05:08;;;;;;;1.55;0.80;;;24.80;36.30;;;;;;5021864;28;20061;-62
2023/09/03 12:07:33;;;;;;;1.30;1.00;;;24.80;36.80;;;;;;5026165;28;20057;-62
2023/09/03 12:09:59;;;;;;;3.28;1.10;;;24.70;37.00;;;;;;5019324;28;20025;-62
2023/09/03 12:12:24;;;;;;;0.73;0.70;;;24.40;36.00;;;;;;5017822;28;20029;-62
2023/09/03 12:14:50;;;;;;;1.35;0.90;;;24.00;37.80;;;;;;5017845;28;20563;-62
2023/09/03 12:17:26;;;;;;;0.77;0.77;;;24.10;38.20;;;;;;5018260;28;20035;-62
2023/09/03 12:19:51;;;;;;;1.00;0.90;;;24.20;38.20;;;;;;5009311;28;20489;-62
2023/09/03 12:22:19;;;;;;;2.72;1.08;;;24.30;38.60;;;;;;5010672;28;20044;-62
2023/09/03 12:24:48;;;;;;;2.03;0.98;;;24.20;37.20;;;;;;5024195;28;20031;-62
2023/09/03 12:27:14;;;;;;;1.83;0.88;;;24.20;38.00;;;;;;5010023;28;20440;-62
2023/09/03 12:29:40;;;;;;;3.05;0.85;;;24.20;38.20;;;;;;5015332;28;20053;-62
2023/09/03 12:32:08;;;;;;;1.92;1.00;;;24.30;38.50;;;;;;5015217;28;20063;-62
2023/09/03 12:34:38;;;;;;;2.47;1.23;;;24.40;38.60;;;;;;5008655;28;20030;-63
2023/09/03 12:37:05;;;;;;;1.10;0.70;;;24.50;38.20;;;;;;5023998;28;20437;-63
2023/09/03 12:39:35;;;;;;;1.88;0.90;;;24.60;37.70;;;;;;5013932;28;20113;-62
2023/09/03 12:42:03;;;;;;;2.10;0.98;;;24.60;37.20;;;;;;5011979;28;20033;-62
2023/09/03 12:44:28;;;;;;;1.63;0.75;;;24.40;35.70;;;;;;5015763;28;20362;-62